sensor_id;sensor_type;location;lat;lon;timestamp;P1;durP1;ratioP1;P2;durP2;ratioP2
12814;SDS011;6472;52.328;13.070;2023-08-07T00:00:05;8.80;;;4.10;;
12814;SDS011;6472;52.328;13.070;2023-08-07T00:02:35;5.87;;;3.97;;
12814;SDS011;6472;52.328;13.070;2023-08-07T00:05:04;6.33;;;4.40;;
12814;SDS011;6472;52.328;13.070;2023-08-07T00:07:32;8.27;;;4.03;;
12814;SDS011;6472;52.328;13.070;2023-08-07T00:10:00;7.70;;;4.23;;
12814;SDS011;6472;52.328;13.070;2023-08-07T00:12:31;5.80;;;4.50;;
12814;SDS011;6472;52.328;13.070;2023-08-07T00:14:59;10.00;;;4.40;;
12814;SDS011;6472;52.328;13.070;2023-08-07T00:17:27;5.73;;;4.33;;
12814;SDS011;6472;52.328;13.070;2023-08-07T00:19:56;5.00;;;4.50;;
12814;SDS011;6472;52.328;13.070;2023-08-07T00:22:23;7.17;;;4.83;;
12814;SDS011;6472;52.328;13.070;2023-08-07T00:24:52;8.87;;;4.73;;
12814;SDS011;6472;52.328;13.070;2023-08-07T00:27:20;7.20;;;4.37;;
12814;SDS011;6472;52.328;13.070;2023-08-07T00:29:50;7.53;;;4.47;;
12814;SDS011;6472;52.328;13.070;2023-08-07T00:32:18;5.07;;;4.57;;
12814;SDS011;6472;52.328;13.070;2023-08-07T00:34:46;6.00;;;4.10;;
12814;SDS011;6472;52.328;13.070;2023-08-07T00:37:14;5.97;;;5.03;;
12814;SDS011;6472;52.328;13.070;2023-08-07T00:39:42;5.57;;;4.30;;
12814;SDS011;6472;52.328;13.070;2023-08-07T00:42:11;5.00;;;4.50;;
12814;SDS011;6472;52.328;13.070;2023-08-07T00:44:39;12.57;;;5.20;;
12814;SDS011;6472;52.328;13.070;2023-08-07T00:47:08;18.70;;;4.97;;
12814;SDS011;6472;52.328;13.070;2023-08-07T00:49:36;10.10;;;5.23;;
12814;SDS011;6472;52.328;13.070;2023-08-07T00:52:05;9.30;;;4.63;;
12814;SDS011;6472;52.328;13.070;2023-08-07T00:54:33;8.83;;;4.97;;
12814;SDS011;6472;52.328;13.070;2023-08-07T00:57:04;5.03;;;4.53;;
12814;SDS011;6472;52.328;13.070;2023-08-07T00:59:38;6.03;;;4.90;;
12814;SDS011;6472;52.328;13.070;2023-08-07T01:02:08;6.43;;;4.73;;
12814;SDS011;6472;52.328;13.070;2023-08-07T01:04:37;5.50;;;4.27;;
12814;SDS011;6472;52.328;13.070;2023-08-07T01:07:05;11.77;;;5.73;;
12814;SDS011;6472;52.328;13.070;2023-08-07T01:09:34;8.87;;;5.47;;
12814;SDS011;6472;52.328;13.070;2023-08-07T01:12:07;11.53;;;5.90;;
12814;SDS011;6472;52.328;13.070;2023-08-07T01:14:42;9.87;;;5.07;;
12814;SDS011;6472;52.328;13.070;2023-08-07T01:17:19;17.17;;;5.63;;
12814;SDS011;6472;52.328;13.070;2023-08-07T01:19:49;6.33;;;5.33;;
12814;SDS011;6472;52.328;13.070;2023-08-07T01:22:20;11.20;;;5.63;;
12814;SDS011;6472;52.328;13.070;2023-08-07T01:24:49;7.40;;;5.63;;
12814;SDS011;6472;52.328;13.070;2023-08-07T01:27:24;11.37;;;5.67;;
12814;SDS011;6472;52.328;13.070;2023-08-07T01:30:02;10.83;;;6.47;;
12814;SDS011;6472;52.328;13.070;2023-08-07T01:32:47;8.53;;;5.00;;
12814;SDS011;6472;52.328;13.070;2023-08-07T01:35:25;7.43;;;5.20;;
12814;SDS011;6472;52.328;13.070;2023-08-07T01:37:57;13.37;;;5.60;;
12814;SDS011;6472;52.328;13.070;2023-08-07T01:40:27;7.80;;;5.13;;
12814;SDS011;6472;52.328;13.070;2023-08-07T01:42:56;7.30;;;5.23;;
12814;SDS011;6472;52.328;13.070;2023-08-07T01:45:25;10.03;;;5.83;;
12814;SDS011;6472;52.328;13.070;2023-08-07T01:47:54;9.77;;;5.70;;
12814;SDS011;6472;52.328;13.070;2023-08-07T01:50:23;9.40;;;5.50;;
12814;SDS011;6472;52.328;13.070;2023-08-07T01:52:52;7.27;;;5.53;;
12814;SDS011;6472;52.328;13.070;2023-08-07T01:55:22;8.10;;;5.77;;
12814;SDS011;6472;52.328;13.070;2023-08-07T01:57:50;7.47;;;4.90;;
12814;SDS011;6472;52.328;13.070;2023-08-07T02:00:18;8.97;;;6.10;;
12814;SDS011;6472;52.328;13.070;2023-08-07T02:02:47;6.03;;;4.73;;
12814;SDS011;6472;52.328;13.070;2023-08-07T02:05:15;9.27;;;6.57;;
12814;SDS011;6472;52.328;13.070;2023-08-07T02:07:44;7.73;;;5.20;;
12814;SDS011;6472;52.328;13.070;2023-08-07T02:10:12;8.00;;;5.27;;
12814;SDS011;6472;52.328;13.070;2023-08-07T02:12:41;8.17;;;5.30;;
12814;SDS011;6472;52.328;13.070;2023-08-07T02:15:09;8.07;;;5.33;;
12814;SDS011;6472;52.328;13.070;2023-08-07T02:17:37;6.13;;;5.50;;
12814;SDS011;6472;52.328;13.070;2023-08-07T02:20:08;8.10;;;5.10;;
12814;SDS011;6472;52.328;13.070;2023-08-07T02:22:36;6.17;;;5.13;;
12814;SDS011;6472;52.328;13.070;2023-08-07T02:25:05;7.30;;;4.53;;
12814;SDS011;6472;52.328;13.070;2023-08-07T02:27:33;7.47;;;5.80;;
12814;SDS011;6472;52.328;13.070;2023-08-07T02:30:03;6.50;;;5.00;;
12814;SDS011;6472;52.328;13.070;2023-08-07T02:32:32;8.27;;;5.87;;
12814;SDS011;6472;52.328;13.070;2023-08-07T02:35:00;9.53;;;5.30;;
12814;SDS011;6472;52.328;13.070;2023-08-07T02:37:28;7.67;;;6.00;;
12814;SDS011;6472;52.328;13.070;2023-08-07T02:39:56;13.53;;;6.20;;
12814;SDS011;6472;52.328;13.070;2023-08-07T02:42:24;9.10;;;5.40;;
12814;SDS011;6472;52.328;13.070;2023-08-07T02:44:52;6.70;;;6.00;;
12814;SDS011;6472;52.328;13.070;2023-08-07T02:47:22;8.30;;;6.53;;
12814;SDS011;6472;52.328;13.070;2023-08-07T02:49:50;8.40;;;6.37;;
12814;SDS011;6472;52.328;13.070;2023-08-07T02:52:18;7.90;;;6.03;;
12814;SDS011;6472;52.328;13.070;2023-08-07T02:54:46;9.07;;;6.30;;
12814;SDS011;6472;52.328;13.070;2023-08-07T02:57:14;9.17;;;6.43;;
12814;SDS011;6472;52.328;13.070;2023-08-07T02:59:42;10.70;;;7.07;;
12814;SDS011;6472;52.328;13.070;2023-08-07T03:02:10;16.37;;;7.30;;
12814;SDS011;6472;52.328;13.070;2023-08-07T03:04:39;14.10;;;6.97;;
12814;SDS011;6472;52.328;13.070;2023-08-07T03:07:07;9.07;;;6.60;;
12814;SDS011;6472;52.328;13.070;2023-08-07T03:09:35;8.57;;;6.40;;
12814;SDS011;6472;52.328;13.070;2023-08-07T03:12:04;12.10;;;7.47;;
12814;SDS011;6472;52.328;13.070;2023-08-07T03:14:32;10.83;;;7.33;;
12814;SDS011;6472;52.328;13.070;2023-08-07T03:17:00;11.13;;;6.57;;
12814;SDS011;6472;52.328;13.070;2023-08-07T03:19:30;11.57;;;6.77;;
12814;SDS011;6472;52.328;13.070;2023-08-07T03:21:59;7.80;;;6.40;;
12814;SDS011;6472;52.328;13.070;2023-08-07T03:24:27;11.83;;;7.27;;
12814;SDS011;6472;52.328;13.070;2023-08-07T03:26:55;10.50;;;7.50;;
12814;SDS011;6472;52.328;13.070;2023-08-07T03:29:23;10.80;;;6.87;;
12814;SDS011;6472;52.328;13.070;2023-08-07T03:31:51;9.93;;;6.77;;
12814;SDS011;6472;52.328;13.070;2023-08-07T03:34:19;10.73;;;6.67;;
12814;SDS011;6472;52.328;13.070;2023-08-07T03:36:47;14.23;;;7.10;;
12814;SDS011;6472;52.328;13.070;2023-08-07T03:39:17;16.00;;;6.87;;
12814;SDS011;6472;52.328;13.070;2023-08-07T03:41:45;10.97;;;7.07;;
12814;SDS011;6472;52.328;13.070;2023-08-07T03:44:13;10.70;;;6.87;;
12814;SDS011;6472;52.328;13.070;2023-08-07T03:46:41;9.83;;;6.70;;
12814;SDS011;6472;52.328;13.070;2023-08-07T03:49:09;9.07;;;6.60;;
12814;SDS011;6472;52.328;13.070;2023-08-07T03:51:37;8.53;;;6.87;;
12814;SDS011;6472;52.328;13.070;2023-08-07T03:54:05;25.90;;;7.37;;
12814;SDS011;6472;52.328;13.070;2023-08-07T03:56:35;8.47;;;6.33;;
12814;SDS011;6472;52.328;13.070;2023-08-07T03:59:04;11.00;;;6.63;;
12814;SDS011;6472;52.328;13.070;2023-08-07T04:01:32;8.50;;;6.50;;
12814;SDS011;6472;52.328;13.070;2023-08-07T04:04:00;9.57;;;6.47;;
12814;SDS011;6472;52.328;13.070;2023-08-07T04:06:29;9.80;;;6.70;;
12814;SDS011;6472;52.328;13.070;2023-08-07T04:08:57;8.40;;;5.73;;
12814;SDS011;6472;52.328;13.070;2023-08-07T04:11:25;7.50;;;5.80;;
12814;SDS011;6472;52.328;13.070;2023-08-07T04:13:55;11.47;;;6.27;;
12814;SDS011;6472;52.328;13.070;2023-08-07T04:16:23;9.73;;;5.93;;
12814;SDS011;6472;52.328;13.070;2023-08-07T04:18:51;7.13;;;5.33;;
12814;SDS011;6472;52.328;13.070;2023-08-07T04:21:19;8.17;;;6.23;;
12814;SDS011;6472;52.328;13.070;2023-08-07T04:23:47;8.17;;;6.37;;
12814;SDS011;6472;52.328;13.070;2023-08-07T04:26:15;8.53;;;6.30;;
12814;SDS011;6472;52.328;13.070;2023-08-07T04:28:43;8.70;;;5.97;;
12814;SDS011;6472;52.328;13.070;2023-08-07T04:31:12;8.03;;;6.13;;
12814;SDS011;6472;52.328;13.070;2023-08-07T04:33:40;7.27;;;6.07;;
12814;SDS011;6472;52.328;13.070;2023-08-07T04:36:08;7.63;;;6.40;;
12814;SDS011;6472;52.328;13.070;2023-08-07T04:38:36;8.10;;;6.20;;
12814;SDS011;6472;52.328;13.070;2023-08-07T04:41:04;7.83;;;5.53;;
12814;SDS011;6472;52.328;13.070;2023-08-07T04:43:32;8.57;;;6.27;;
12814;SDS011;6472;52.328;13.070;2023-08-07T04:46:00;6.70;;;5.93;;
12814;SDS011;6472;52.328;13.070;2023-08-07T04:48:30;12.97;;;6.60;;
12814;SDS011;6472;52.328;13.070;2023-08-07T04:50:57;8.23;;;5.97;;
12814;SDS011;6472;52.328;13.070;2023-08-07T04:53:25;8.17;;;6.07;;
12814;SDS011;6472;52.328;13.070;2023-08-07T04:55:53;9.47;;;6.50;;
12814;SDS011;6472;52.328;13.070;2023-08-07T04:58:21;9.87;;;6.53;;
12814;SDS011;6472;52.328;13.070;2023-08-07T05:00:53;7.93;;;5.90;;
12814;SDS011;6472;52.328;13.070;2023-08-07T05:03:22;7.10;;;5.37;;
12814;SDS011;6472;52.328;13.070;2023-08-07T05:05:55;6.33;;;5.10;;
12814;SDS011;6472;52.328;13.070;2023-08-07T05:08:25;10.27;;;6.13;;
12814;SDS011;6472;52.328;13.070;2023-08-07T05:10:53;7.63;;;5.70;;
12814;SDS011;6472;52.328;13.070;2023-08-07T05:13:21;10.80;;;6.87;;
12814;SDS011;6472;52.328;13.070;2023-08-07T05:15:49;8.93;;;5.17;;
12814;SDS011;6472;52.328;13.070;2023-08-07T05:18:17;8.37;;;5.87;;
12814;SDS011;6472;52.328;13.070;2023-08-07T05:20:46;7.20;;;5.07;;
12814;SDS011;6472;52.328;13.070;2023-08-07T05:23:15;12.07;;;5.30;;
12814;SDS011;6472;52.328;13.070;2023-08-07T05:25:44;8.80;;;5.87;;
12814;SDS011;6472;52.328;13.070;2023-08-07T05:28:15;8.20;;;5.63;;
12814;SDS011;6472;52.328;13.070;2023-08-07T05:30:43;8.27;;;5.33;;
12814;SDS011;6472;52.328;13.070;2023-08-07T05:33:11;5.90;;;4.60;;
12814;SDS011;6472;52.328;13.070;2023-08-07T05:35:41;10.53;;;5.13;;
12814;SDS011;6472;52.328;13.070;2023-08-07T05:38:09;7.63;;;4.60;;
12814;SDS011;6472;52.328;13.070;2023-08-07T05:40:38;8.83;;;5.20;;
12814;SDS011;6472;52.328;13.070;2023-08-07T05:43:07;9.90;;;5.17;;
12814;SDS011;6472;52.328;13.070;2023-08-07T05:45:36;4.87;;;4.43;;
12814;SDS011;6472;52.328;13.070;2023-08-07T05:48:04;7.43;;;5.07;;
12814;SDS011;6472;52.328;13.070;2023-08-07T05:50:33;8.03;;;4.50;;
12814;SDS011;6472;52.328;13.070;2023-08-07T05:53:01;4.43;;;3.80;;
12814;SDS011;6472;52.328;13.070;2023-08-07T05:55:30;6.47;;;4.00;;
12814;SDS011;6472;52.328;13.070;2023-08-07T05:58:00;4.37;;;3.90;;
12814;SDS011;6472;52.328;13.070;2023-08-07T06:00:28;4.80;;;4.07;;
12814;SDS011;6472;52.328;13.070;2023-08-07T06:02:56;4.90;;;4.33;;
12814;SDS011;6472;52.328;13.070;2023-08-07T06:05:24;4.83;;;4.10;;
12814;SDS011;6472;52.328;13.070;2023-08-07T06:07:52;4.87;;;3.93;;
12814;SDS011;6472;52.328;13.070;2023-08-07T06:10:20;6.67;;;3.73;;
12814;SDS011;6472;52.328;13.070;2023-08-07T06:12:48;5.83;;;4.90;;
12814;SDS011;6472;52.328;13.070;2023-08-07T06:15:18;7.53;;;4.30;;
12814;SDS011;6472;52.328;13.070;2023-08-07T06:17:46;4.80;;;3.53;;
12814;SDS011;6472;52.328;13.070;2023-08-07T06:20:14;4.97;;;3.87;;
12814;SDS011;6472;52.328;13.070;2023-08-07T06:22:43;7.47;;;3.97;;
12814;SDS011;6472;52.328;13.070;2023-08-07T06:25:11;3.60;;;3.30;;
12814;SDS011;6472;52.328;13.070;2023-08-07T06:27:39;4.37;;;3.97;;
12814;SDS011;6472;52.328;13.070;2023-08-07T06:30:07;5.37;;;4.00;;
12814;SDS011;6472;52.328;13.070;2023-08-07T06:32:37;4.23;;;3.80;;
12814;SDS011;6472;52.328;13.070;2023-08-07T06:35:05;7.85;;;3.78;;
12814;SDS011;6472;52.328;13.070;2023-08-07T06:37:34;5.13;;;3.57;;
12814;SDS011;6472;52.328;13.070;2023-08-07T06:40:02;9.07;;;4.07;;
12814;SDS011;6472;52.328;13.070;2023-08-07T06:42:31;8.40;;;4.30;;
12814;SDS011;6472;52.328;13.070;2023-08-07T06:44:59;6.03;;;3.97;;
12814;SDS011;6472;52.328;13.070;2023-08-07T06:47:27;5.20;;;3.63;;
12814;SDS011;6472;52.328;13.070;2023-08-07T06:49:56;9.35;;;3.67;;
12814;SDS011;6472;52.328;13.070;2023-08-07T06:52:24;3.70;;;3.38;;
12814;SDS011;6472;52.328;13.070;2023-08-07T06:54:52;9.77;;;4.47;;
12814;SDS011;6472;52.328;13.070;2023-08-07T06:57:20;4.77;;;3.30;;
12814;SDS011;6472;52.328;13.070;2023-08-07T06:59:48;25.17;;;6.13;;
12814;SDS011;6472;52.328;13.070;2023-08-07T07:02:16;8.27;;;3.40;;
12814;SDS011;6472;52.328;13.070;2023-08-07T07:04:44;6.20;;;3.25;;
12814;SDS011;6472;52.328;13.070;2023-08-07T07:07:13;6.27;;;3.50;;
12814;SDS011;6472;52.328;13.070;2023-08-07T07:09:41;4.13;;;3.27;;
12814;SDS011;6472;52.328;13.070;2023-08-07T07:12:09;5.17;;;3.47;;
12814;SDS011;6472;52.328;13.070;2023-08-07T07:14:38;4.70;;;3.50;;
12814;SDS011;6472;52.328;13.070;2023-08-07T07:17:05;8.40;;;3.03;;
12814;SDS011;6472;52.328;13.070;2023-08-07T07:19:34;4.05;;;3.03;;
12814;SDS011;6472;52.328;13.070;2023-08-07T07:22:02;7.38;;;3.22;;
12814;SDS011;6472;52.328;13.070;2023-08-07T07:24:31;4.77;;;3.13;;
12814;SDS011;6472;52.328;13.070;2023-08-07T07:26:59;4.15;;;3.40;;
12814;SDS011;6472;52.328;13.070;2023-08-07T07:29:27;3.30;;;2.93;;
12814;SDS011;6472;52.328;13.070;2023-08-07T07:31:55;2.65;;;2.42;;
12814;SDS011;6472;52.328;13.070;2023-08-07T07:34:24;6.10;;;3.03;;
12814;SDS011;6472;52.328;13.070;2023-08-07T07:36:52;3.73;;;2.43;;
12814;SDS011;6472;52.328;13.070;2023-08-07T07:39:21;2.90;;;2.70;;
12814;SDS011;6472;52.328;13.070;2023-08-07T07:41:50;3.23;;;2.93;;
12814;SDS011;6472;52.328;13.070;2023-08-07T07:44:18;6.05;;;2.75;;
12814;SDS011;6472;52.328;13.070;2023-08-07T07:46:46;3.42;;;3.13;;
12814;SDS011;6472;52.328;13.070;2023-08-07T07:49:14;2.95;;;2.75;;
12814;SDS011;6472;52.328;13.070;2023-08-07T07:51:42;3.75;;;2.65;;
12814;SDS011;6472;52.328;13.070;2023-08-07T07:54:10;4.20;;;2.90;;
12814;SDS011;6472;52.328;13.070;2023-08-07T07:56:41;5.90;;;3.03;;
12814;SDS011;6472;52.328;13.070;2023-08-07T07:59:11;2.25;;;2.00;;
12814;SDS011;6472;52.328;13.070;2023-08-07T08:01:39;2.55;;;2.35;;
12814;SDS011;6472;52.328;13.070;2023-08-07T08:04:07;5.07;;;2.83;;
12814;SDS011;6472;52.328;13.070;2023-08-07T08:06:37;2.72;;;2.40;;
12814;SDS011;6472;52.328;13.070;2023-08-07T08:09:05;4.05;;;2.70;;
12814;SDS011;6472;52.328;13.070;2023-08-07T08:11:36;3.92;;;2.53;;
12814;SDS011;6472;52.328;13.070;2023-08-07T08:14:04;2.55;;;2.35;;
12814;SDS011;6472;52.328;13.070;2023-08-07T08:16:33;5.40;;;2.58;;
12814;SDS011;6472;52.328;13.070;2023-08-07T08:19:01;3.28;;;2.60;;
12814;SDS011;6472;52.328;13.070;2023-08-07T08:21:29;3.10;;;2.72;;
12814;SDS011;6472;52.328;13.070;2023-08-07T08:23:59;3.30;;;2.35;;
12814;SDS011;6472;52.328;13.070;2023-08-07T08:26:27;2.90;;;2.17;;
12814;SDS011;6472;52.328;13.070;2023-08-07T08:28:55;5.57;;;2.38;;
12814;SDS011;6472;52.328;13.070;2023-08-07T08:31:23;2.55;;;2.30;;
12814;SDS011;6472;52.328;13.070;2023-08-07T08:33:52;8.52;;;2.60;;
12814;SDS011;6472;52.328;13.070;2023-08-07T08:36:20;3.83;;;2.45;;
12814;SDS011;6472;52.328;13.070;2023-08-07T08:38:49;6.78;;;2.50;;
12814;SDS011;6472;52.328;13.070;2023-08-07T08:41:18;2.75;;;2.05;;
12814;SDS011;6472;52.328;13.070;2023-08-07T08:43:47;3.00;;;2.15;;
12814;SDS011;6472;52.328;13.070;2023-08-07T08:46:19;2.28;;;2.08;;
12814;SDS011;6472;52.328;13.070;2023-08-07T08:48:50;4.43;;;2.35;;
12814;SDS011;6472;52.328;13.070;2023-08-07T08:51:22;3.08;;;2.05;;
12814;SDS011;6472;52.328;13.070;2023-08-07T08:53:52;3.60;;;2.13;;
12814;SDS011;6472;52.328;13.070;2023-08-07T08:56:23;4.60;;;2.13;;
12814;SDS011;6472;52.328;13.070;2023-08-07T08:58:51;1.77;;;1.67;;
12814;SDS011;6472;52.328;13.070;2023-08-07T09:01:19;4.85;;;2.13;;
12814;SDS011;6472;52.328;13.070;2023-08-07T09:03:53;1.63;;;1.50;;
12814;SDS011;6472;52.328;13.070;2023-08-07T09:06:24;3.50;;;1.90;;
12814;SDS011;6472;52.328;13.070;2023-08-07T09:08:55;2.63;;;2.00;;
12814;SDS011;6472;52.328;13.070;2023-08-07T09:11:24;1.60;;;1.50;;
12814;SDS011;6472;52.328;13.070;2023-08-07T09:13:53;2.35;;;2.08;;
12814;SDS011;6472;52.328;13.070;2023-08-07T09:16:24;2.38;;;1.95;;
12814;SDS011;6472;52.328;13.070;2023-08-07T09:18:54;1.88;;;1.75;;
12814;SDS011;6472;52.328;13.070;2023-08-07T09:21:22;2.58;;;1.70;;
12814;SDS011;6472;52.328;13.070;2023-08-07T09:23:53;2.47;;;1.95;;
12814;SDS011;6472;52.328;13.070;2023-08-07T09:26:21;1.60;;;1.50;;
12814;SDS011;6472;52.328;13.070;2023-08-07T09:28:51;2.15;;;1.77;;
12814;SDS011;6472;52.328;13.070;2023-08-07T09:31:20;2.40;;;1.63;;
12814;SDS011;6472;52.328;13.070;2023-08-07T09:33:53;1.60;;;1.50;;
12814;SDS011;6472;52.328;13.070;2023-08-07T09:36:21;1.70;;;1.60;;
12814;SDS011;6472;52.328;13.070;2023-08-07T09:38:52;3.22;;;1.70;;
12814;SDS011;6472;52.328;13.070;2023-08-07T09:41:20;3.15;;;1.40;;
12814;SDS011;6472;52.328;13.070;2023-08-07T09:43:49;1.92;;;1.27;;
12814;SDS011;6472;52.328;13.070;2023-08-07T09:46:17;1.75;;;1.60;;
12814;SDS011;6472;52.328;13.070;2023-08-07T09:48:47;1.40;;;1.27;;
12814;SDS011;6472;52.328;13.070;2023-08-07T09:51:15;1.63;;;1.50;;
12814;SDS011;6472;52.328;13.070;2023-08-07T09:53:43;3.17;;;1.80;;
12814;SDS011;6472;52.328;13.070;2023-08-07T09:56:12;1.83;;;1.40;;
12814;SDS011;6472;52.328;13.070;2023-08-07T09:58:43;1.67;;;1.58;;
12814;SDS011;6472;52.328;13.070;2023-08-07T10:01:15;2.35;;;1.30;;
12814;SDS011;6472;52.328;13.070;2023-08-07T10:03:44;2.25;;;1.98;;
12814;SDS011;6472;52.328;13.070;2023-08-07T10:06:13;3.92;;;1.70;;
12814;SDS011;6472;52.328;13.070;2023-08-07T10:08:42;1.85;;;1.48;;
12814;SDS011;6472;52.328;13.070;2023-08-07T10:11:13;1.45;;;1.35;;
12814;SDS011;6472;52.328;13.070;2023-08-07T10:13:44;3.75;;;1.42;;
12814;SDS011;6472;52.328;13.070;2023-08-07T10:16:12;1.52;;;1.30;;
12814;SDS011;6472;52.328;13.070;2023-08-07T10:18:41;4.30;;;1.38;;
12814;SDS011;6472;52.328;13.070;2023-08-07T10:21:09;1.92;;;1.50;;
12814;SDS011;6472;52.328;13.070;2023-08-07T10:23:38;3.20;;;1.33;;
12814;SDS011;6472;52.328;13.070;2023-08-07T10:26:06;1.92;;;1.48;;
12814;SDS011;6472;52.328;13.070;2023-08-07T10:28:39;1.38;;;1.30;;
12814;SDS011;6472;52.328;13.070;2023-08-07T10:31:09;1.92;;;1.45;;
12814;SDS011;6472;52.328;13.070;2023-08-07T10:33:40;2.65;;;1.45;;
12814;SDS011;6472;52.328;13.070;2023-08-07T10:36:09;2.22;;;1.40;;
12814;SDS011;6472;52.328;13.070;2023-08-07T10:38:38;2.25;;;1.65;;
12814;SDS011;6472;52.328;13.070;2023-08-07T10:41:08;1.77;;;1.33;;
12814;SDS011;6472;52.328;13.070;2023-08-07T10:43:38;1.92;;;1.30;;
12814;SDS011;6472;52.328;13.070;2023-08-07T10:46:09;2.08;;;1.20;;
12814;SDS011;6472;52.328;13.070;2023-08-07T10:48:39;2.13;;;1.73;;
12814;SDS011;6472;52.328;13.070;2023-08-07T10:51:08;1.48;;;1.20;;
12814;SDS011;6472;52.328;13.070;2023-08-07T10:53:40;1.85;;;1.40;;
12814;SDS011;6472;52.328;13.070;2023-08-07T10:56:10;2.40;;;1.55;;
12814;SDS011;6472;52.328;13.070;2023-08-07T10:58:47;4.03;;;1.48;;
12814;SDS011;6472;52.328;13.070;2023-08-07T11:01:24;1.48;;;1.38;;
12814;SDS011;6472;52.328;13.070;2023-08-07T11:04:05;1.40;;;1.30;;
12814;SDS011;6472;52.328;13.070;2023-08-07T11:06:37;1.70;;;1.40;;
12814;SDS011;6472;52.328;13.070;2023-08-07T11:09:06;2.08;;;1.40;;
12814;SDS011;6472;52.328;13.070;2023-08-07T11:11:36;4.32;;;1.83;;
12814;SDS011;6472;52.328;13.070;2023-08-07T11:14:08;2.50;;;1.20;;
12814;SDS011;6472;52.328;13.070;2023-08-07T11:16:37;1.80;;;1.50;;
12814;SDS011;6472;52.328;13.070;2023-08-07T11:19:05;1.70;;;1.20;;
12814;SDS011;6472;52.328;13.070;2023-08-07T11:21:34;4.60;;;1.80;;
12814;SDS011;6472;52.328;13.070;2023-08-07T11:24:02;2.58;;;1.45;;
12814;SDS011;6472;52.328;13.070;2023-08-07T11:26:31;1.38;;;1.27;;
12814;SDS011;6472;52.328;13.070;2023-08-07T11:28:59;1.45;;;1.35;;
12814;SDS011;6472;52.328;13.070;2023-08-07T11:31:29;1.65;;;1.20;;
12814;SDS011;6472;52.328;13.070;2023-08-07T11:33:58;2.33;;;1.52;;
12814;SDS011;6472;52.328;13.070;2023-08-07T11:36:29;1.77;;;1.20;;
12814;SDS011;6472;52.328;13.070;2023-08-07T11:38:58;3.22;;;1.50;;
12814;SDS011;6472;52.328;13.070;2023-08-07T11:41:26;2.00;;;1.75;;
12814;SDS011;6472;52.328;13.070;2023-08-07T11:43:59;2.42;;;1.30;;
12814;SDS011;6472;52.328;13.070;2023-08-07T11:46:27;1.95;;;1.20;;
12814;SDS011;6472;52.328;13.070;2023-08-07T11:48:57;2.88;;;1.88;;
12814;SDS011;6472;52.328;13.070;2023-08-07T11:51:26;0.93;;;0.93;;
12814;SDS011;6472;52.328;13.070;2023-08-07T11:53:55;1.63;;;1.52;;
12814;SDS011;6472;52.328;13.070;2023-08-07T11:56:25;1.77;;;1.23;;
12814;SDS011;6472;52.328;13.070;2023-08-07T11:58:53;2.78;;;1.20;;
12814;SDS011;6472;52.328;13.070;2023-08-07T12:01:22;2.78;;;0.98;;
12814;SDS011;6472;52.328;13.070;2023-08-07T12:03:54;2.05;;;1.00;;
12814;SDS011;6472;52.328;13.070;2023-08-07T12:06:23;1.73;;;1.00;;
12814;SDS011;6472;52.328;13.070;2023-08-07T12:08:53;3.63;;;1.10;;
12814;SDS011;6472;52.328;13.070;2023-08-07T12:11:23;0.90;;;0.90;;
12814;SDS011;6472;52.328;13.070;2023-08-07T12:13:51;4.65;;;1.40;;
12814;SDS011;6472;52.328;13.070;2023-08-07T12:16:19;0.93;;;0.93;;
12814;SDS011;6472;52.328;13.070;2023-08-07T12:18:48;3.47;;;1.20;;
12814;SDS011;6472;52.328;13.070;2023-08-07T12:21:19;1.65;;;0.85;;
12814;SDS011;6472;52.328;13.070;2023-08-07T12:23:50;2.95;;;0.90;;
12814;SDS011;6472;52.328;13.070;2023-08-07T12:26:19;1.77;;;1.00;;
12814;SDS011;6472;52.328;13.070;2023-08-07T12:28:47;2.97;;;1.23;;
12814;SDS011;6472;52.328;13.070;2023-08-07T12:31:16;2.03;;;1.13;;
12814;SDS011;6472;52.328;13.070;2023-08-07T12:33:44;3.17;;;1.25;;
12814;SDS011;6472;52.328;13.070;2023-08-07T12:36:13;1.70;;;1.15;;
12814;SDS011;6472;52.328;13.070;2023-08-07T12:38:46;1.45;;;1.20;;
12814;SDS011;6472;52.328;13.070;2023-08-07T12:41:14;3.80;;;1.50;;
12814;SDS011;6472;52.328;13.070;2023-08-07T12:43:45;3.05;;;1.50;;
12814;SDS011;6472;52.328;13.070;2023-08-07T12:46:13;2.35;;;1.00;;
12814;SDS011;6472;52.328;13.070;2023-08-07T12:48:44;2.53;;;1.10;;
12814;SDS011;6472;52.328;13.070;2023-08-07T12:51:12;2.97;;;1.58;;
12814;SDS011;6472;52.328;13.070;2023-08-07T12:53:40;2.88;;;1.38;;
12814;SDS011;6472;52.328;13.070;2023-08-07T12:56:09;3.63;;;1.85;;
12814;SDS011;6472;52.328;13.070;2023-08-07T12:58:37;2.25;;;1.25;;
12814;SDS011;6472;52.328;13.070;2023-08-07T13:01:08;5.05;;;1.70;;
12814;SDS011;6472;52.328;13.070;2023-08-07T13:03:36;2.63;;;1.35;;
12814;SDS011;6472;52.328;13.070;2023-08-07T13:06:04;3.60;;;1.48;;
12814;SDS011;6472;52.328;13.070;2023-08-07T13:08:34;2.25;;;1.70;;
12814;SDS011;6472;52.328;13.070;2023-08-07T13:11:02;5.28;;;1.98;;
12814;SDS011;6472;52.328;13.070;2023-08-07T13:13:32;3.78;;;1.77;;
12814;SDS011;6472;52.328;13.070;2023-08-07T13:16:00;4.88;;;1.98;;
12814;SDS011;6472;52.328;13.070;2023-08-07T13:18:28;2.03;;;1.50;;
12814;SDS011;6472;52.328;13.070;2023-08-07T13:20:56;2.40;;;1.67;;
12814;SDS011;6472;52.328;13.070;2023-08-07T13:23:24;3.47;;;1.80;;
12814;SDS011;6472;52.328;13.070;2023-08-07T13:25:52;4.45;;;1.88;;
12814;SDS011;6472;52.328;13.070;2023-08-07T13:28:20;3.78;;;1.70;;
12814;SDS011;6472;52.328;13.070;2023-08-07T13:30:50;3.38;;;1.90;;
12814;SDS011;6472;52.328;13.070;2023-08-07T13:33:20;5.00;;;2.00;;
12814;SDS011;6472;52.328;13.070;2023-08-07T13:35:48;3.42;;;1.90;;
12814;SDS011;6472;52.328;13.070;2023-08-07T13:38:16;2.58;;;1.80;;
12814;SDS011;6472;52.328;13.070;2023-08-07T13:40:45;3.72;;;1.92;;
12814;SDS011;6472;52.328;13.070;2023-08-07T13:43:13;3.58;;;1.85;;
12814;SDS011;6472;52.328;13.070;2023-08-07T13:45:41;3.30;;;1.83;;
12814;SDS011;6472;52.328;13.070;2023-08-07T13:48:10;3.00;;;1.58;;
12814;SDS011;6472;52.328;13.070;2023-08-07T13:50:38;1.90;;;1.45;;
12814;SDS011;6472;52.328;13.070;2023-08-07T13:53:07;2.13;;;1.70;;
12814;SDS011;6472;52.328;13.070;2023-08-07T13:55:41;4.40;;;1.40;;
12814;SDS011;6472;52.328;13.070;2023-08-07T13:58:09;3.10;;;1.67;;
12814;SDS011;6472;52.328;13.070;2023-08-07T14:00:37;2.65;;;1.73;;
12814;SDS011;6472;52.328;13.070;2023-08-07T14:03:07;5.57;;;1.88;;
12814;SDS011;6472;52.328;13.070;2023-08-07T14:05:37;4.70;;;1.67;;
12814;SDS011;6472;52.328;13.070;2023-08-07T14:08:05;2.90;;;1.30;;
12814;SDS011;6472;52.328;13.070;2023-08-07T14:10:33;3.40;;;1.80;;
12814;SDS011;6472;52.328;13.070;2023-08-07T14:13:02;5.95;;;1.83;;
12814;SDS011;6472;52.328;13.070;2023-08-07T14:15:32;2.63;;;1.38;;
12814;SDS011;6472;52.328;13.070;2023-08-07T14:18:00;3.58;;;1.75;;
12814;SDS011;6472;52.328;13.070;2023-08-07T14:20:28;4.50;;;1.58;;
12814;SDS011;6472;52.328;13.070;2023-08-07T14:22:57;2.88;;;1.50;;
12814;SDS011;6472;52.328;13.070;2023-08-07T14:25:45;4.85;;;1.40;;
12814;SDS011;6472;52.328;13.070;2023-08-07T14:28:15;2.65;;;1.35;;
12814;SDS011;6472;52.328;13.070;2023-08-07T14:30:43;3.15;;;1.23;;
12814;SDS011;6472;52.328;13.070;2023-08-07T14:33:11;2.55;;;1.08;;
12814;SDS011;6472;52.328;13.070;2023-08-07T14:35:39;2.83;;;1.30;;
12814;SDS011;6472;52.328;13.070;2023-08-07T14:38:08;1.40;;;1.30;;
12814;SDS011;6472;52.328;13.070;2023-08-07T14:40:37;4.93;;;1.77;;
12814;SDS011;6472;52.328;13.070;2023-08-07T14:43:07;4.30;;;1.25;;
12814;SDS011;6472;52.328;13.070;2023-08-07T14:45:36;2.45;;;1.50;;
12814;SDS011;6472;52.328;13.070;2023-08-07T14:48:04;3.33;;;1.45;;
12814;SDS011;6472;52.328;13.070;2023-08-07T14:50:33;3.65;;;1.75;;
12814;SDS011;6472;52.328;13.070;2023-08-07T14:53:02;4.53;;;1.45;;
12814;SDS011;6472;52.328;13.070;2023-08-07T14:55:31;8.57;;;2.20;;